Hackett, Minnesota
Current Conditions -  °F | °C
As of 10:24 AM on Monday 26 Jan 2015 (Local Time) from KBDE Reporting Station
Overcast Overcast  
Wind Chill: 22°   Ceiling: 1100
Heat Index: 33°   Visibility: 10mi
Dew Point: 29°   Wind: 17mph
Humidity: 85%   Direction: 330°NNW
Pressure: 29.63"   Gusts: NA
Location:  48.5595°N, 94.661°W
Report Text: KBDE 261624Z AUTO 33015KT 10SM OVC011 01/M02 A2963 RMK AO2 T00061017 TSNO
Loading
Personal Weather Stations






























Interactive Weather Map New forecast layout! Learn more

10-Day Weather Forecast

Advertisements
Track Severe Weather on mobile